sensor_id;sensor_type;location;lat;lon;timestamp;temperature;humidity
36552;DHT22;22559;54.176;12.102;2023-04-03T00:01:16;1.00;99.90
36552;DHT22;22559;54.176;12.102;2023-04-03T00:03:42;1.00;99.90
36552;DHT22;22559;54.176;12.102;2023-04-03T00:06:09;0.90;99.90
36552;DHT22;22559;54.176;12.102;2023-04-03T00:08:35;0.90;99.90
36552;DHT22;22559;54.176;12.102;2023-04-03T00:11:02;0.90;99.90
36552;DHT22;22559;54.176;12.102;2023-04-03T00:13:28;0.90;99.90
36552;DHT22;22559;54.176;12.102;2023-04-03T00:15:54;0.80;99.90
36552;DHT22;22559;54.176;12.102;2023-04-03T00:18:21;0.90;99.90
36552;DHT22;22559;54.176;12.102;2023-04-03T00:20:47;0.90;99.90
36552;DHT22;22559;54.176;12.102;2023-04-03T00:23:13;0.90;99.90
36552;DHT22;22559;54.176;12.102;2023-04-03T00:25:38;0.80;99.90
36552;DHT22;22559;54.176;12.102;2023-04-03T00:28:04;0.90;99.90
36552;DHT22;22559;54.176;12.102;2023-04-03T00:30:31;0.90;99.90
36552;DHT22;22559;54.176;12.102;2023-04-03T00:32:57;0.90;99.90
36552;DHT22;22559;54.176;12.102;2023-04-03T00:35:24;0.90;99.90
36552;DHT22;22559;54.176;12.102;2023-04-03T00:37:53;0.90;99.90
36552;DHT22;22559;54.176;12.102;2023-04-03T00:40:20;0.90;99.90
36552;DHT22;22559;54.176;12.102;2023-04-03T00:42:48;0.90;99.90
36552;DHT22;22559;54.176;12.102;2023-04-03T00:47:49;0.80;99.90
36552;DHT22;22559;54.176;12.102;2023-04-03T00:50:15;0.90;99.90
36552;DHT22;22559;54.176;12.102;2023-04-03T00:52:41;0.80;99.90
36552;DHT22;22559;54.176;12.102;2023-04-03T00:55:08;0.80;99.90
36552;DHT22;22559;54.176;12.102;2023-04-03T00:57:34;0.80;99.90
36552;DHT22;22559;54.176;12.102;2023-04-03T01:00:08;0.70;99.90
36552;DHT22;22559;54.176;12.102;2023-04-03T01:02:35;0.70;99.90
36552;DHT22;22559;54.176;12.102;2023-04-03T01:05:00;0.70;99.90
36552;DHT22;22559;54.176;12.102;2023-04-03T01:07:29;0.70;99.90
36552;DHT22;22559;54.176;12.102;2023-04-03T01:09:58;0.70;99.90
36552;DHT22;22559;54.176;12.102;2023-04-03T01:12:27;0.70;99.90
36552;DHT22;22559;54.176;12.102;2023-04-03T01:14:59;0.60;99.90
36552;DHT22;22559;54.176;12.102;2023-04-03T01:25:38;0.50;99.90
36552;DHT22;22559;54.176;12.102;2023-04-03T01:28:06;0.50;99.90
36552;DHT22;22559;54.176;12.102;2023-04-03T01:30:42;0.50;99.90
36552;DHT22;22559;54.176;12.102;2023-04-03T01:33:08;0.50;99.90
36552;DHT22;22559;54.176;12.102;2023-04-03T01:35:34;0.50;99.90
36552;DHT22;22559;54.176;12.102;2023-04-03T01:37:59;0.40;99.90
36552;DHT22;22559;54.176;12.102;2023-04-03T01:40:25;0.40;99.90
36552;DHT22;22559;54.176;12.102;2023-04-03T01:42:51;0.40;99.90
36552;DHT22;22559;54.176;12.102;2023-04-03T01:45:17;0.50;99.90
36552;DHT22;22559;54.176;12.102;2023-04-03T01:47:42;0.50;99.90
36552;DHT22;22559;54.176;12.102;2023-04-03T01:50:08;0.40;99.90
36552;DHT22;22559;54.176;12.102;2023-04-03T01:52:34;0.50;99.90
36552;DHT22;22559;54.176;12.102;2023-04-03T01:55:00;0.50;99.90
36552;DHT22;22559;54.176;12.102;2023-04-03T01:57:25;0.50;99.90
36552;DHT22;22559;54.176;12.102;2023-04-03T01:59:51;0.50;99.90
36552;DHT22;22559;54.176;12.102;2023-04-03T02:02:17;0.50;99.90
36552;DHT22;22559;54.176;12.102;2023-04-03T02:04:42;0.50;99.90
36552;DHT22;22559;54.176;12.102;2023-04-03T02:07:08;0.50;99.90
36552;DHT22;22559;54.176;12.102;2023-04-03T02:09:34;0.50;99.90
36552;DHT22;22559;54.176;12.102;2023-04-03T02:12:00;0.60;99.90
36552;DHT22;22559;54.176;12.102;2023-04-03T02:14:25;0.50;99.90
36552;DHT22;22559;54.176;12.102;2023-04-03T02:16:52;0.50;99.90
36552;DHT22;22559;54.176;12.102;2023-04-03T02:19:18;0.60;99.90
36552;DHT22;22559;54.176;12.102;2023-04-03T02:21:44;0.60;99.90
36552;DHT22;22559;54.176;12.102;2023-04-03T02:24:10;0.60;99.90
36552;DHT22;22559;54.176;12.102;2023-04-03T02:26:35;0.60;99.90
36552;DHT22;22559;54.176;12.102;2023-04-03T02:29:01;0.60;99.90
36552;DHT22;22559;54.176;12.102;2023-04-03T02:31:27;0.60;99.90
36552;DHT22;22559;54.176;12.102;2023-04-03T02:33:52;0.60;99.90
36552;DHT22;22559;54.176;12.102;2023-04-03T02:36:18;0.60;99.90
36552;DHT22;22559;54.176;12.102;2023-04-03T02:38:44;0.50;99.90
36552;DHT22;22559;54.176;12.102;2023-04-03T02:41:11;0.60;99.90
36552;DHT22;22559;54.176;12.102;2023-04-03T02:43:38;0.50;99.90
36552;DHT22;22559;54.176;12.102;2023-04-03T02:46:04;0.50;99.90
36552;DHT22;22559;54.176;12.102;2023-04-03T02:48:30;0.50;99.90
36552;DHT22;22559;54.176;12.102;2023-04-03T02:50:56;0.40;99.90
36552;DHT22;22559;54.176;12.102;2023-04-03T02:53:22;0.40;99.90
36552;DHT22;22559;54.176;12.102;2023-04-03T02:55:49;0.50;99.90
36552;DHT22;22559;54.176;12.102;2023-04-03T02:58:14;0.40;99.90
36552;DHT22;22559;54.176;12.102;2023-04-03T03:00:41;0.40;99.90
36552;DHT22;22559;54.176;12.102;2023-04-03T03:03:06;0.40;99.90
36552;DHT22;22559;54.176;12.102;2023-04-03T03:05:33;0.30;99.90
36552;DHT22;22559;54.176;12.102;2023-04-03T03:07:58;0.30;99.90
36552;DHT22;22559;54.176;12.102;2023-04-03T03:10:24;0.30;99.90
36552;DHT22;22559;54.176;12.102;2023-04-03T03:12:50;0.30;99.90
36552;DHT22;22559;54.176;12.102;2023-04-03T03:15:16;0.20;99.90
36552;DHT22;22559;54.176;12.102;2023-04-03T03:17:43;0.20;99.90
36552;DHT22;22559;54.176;12.102;2023-04-03T03:20:12;0.20;99.90
36552;DHT22;22559;54.176;12.102;2023-04-03T03:22:39;0.20;99.90
36552;DHT22;22559;54.176;12.102;2023-04-03T03:25:05;0.10;99.90
36552;DHT22;22559;54.176;12.102;2023-04-03T03:27:31;0.10;99.90
36552;DHT22;22559;54.176;12.102;2023-04-03T03:29:56;0.10;99.90
36552;DHT22;22559;54.176;12.102;2023-04-03T03:32:22;0.10;99.90
36552;DHT22;22559;54.176;12.102;2023-04-03T03:34:48;0.10;99.90
36552;DHT22;22559;54.176;12.102;2023-04-03T03:37:13;0.10;99.90
36552;DHT22;22559;54.176;12.102;2023-04-03T03:39:39;0.10;99.90
36552;DHT22;22559;54.176;12.102;2023-04-03T03:42:05;0.20;99.90
36552;DHT22;22559;54.176;12.102;2023-04-03T03:44:30;0.20;99.90
36552;DHT22;22559;54.176;12.102;2023-04-03T03:46:57;0.20;99.90
36552;DHT22;22559;54.176;12.102;2023-04-03T03:49:23;0.30;99.90
36552;DHT22;22559;54.176;12.102;2023-04-03T03:51:49;0.30;99.90
36552;DHT22;22559;54.176;12.102;2023-04-03T03:54:15;0.30;99.90
36552;DHT22;22559;54.176;12.102;2023-04-03T03:56:41;0.30;99.90
36552;DHT22;22559;54.176;12.102;2023-04-03T03:59:06;0.30;99.90
36552;DHT22;22559;54.176;12.102;2023-04-03T04:01:32;0.40;99.90
36552;DHT22;22559;54.176;12.102;2023-04-03T04:03:58;0.50;99.90
36552;DHT22;22559;54.176;12.102;2023-04-03T04:06:24;0.50;99.90
36552;DHT22;22559;54.176;12.102;2023-04-03T04:08:49;0.40;99.90
36552;DHT22;22559;54.176;12.102;2023-04-03T04:11:15;0.40;99.90
36552;DHT22;22559;54.176;12.102;2023-04-03T04:13:41;0.40;99.90
36552;DHT22;22559;54.176;12.102;2023-04-03T04:16:07;0.30;99.90
36552;DHT22;22559;54.176;12.102;2023-04-03T04:18:33;0.20;99.90
36552;DHT22;22559;54.176;12.102;2023-04-03T04:20:59;0.20;99.90
36552;DHT22;22559;54.176;12.102;2023-04-03T04:23:25;0.30;99.90
36552;DHT22;22559;54.176;12.102;2023-04-03T04:25:51;0.40;99.90
36552;DHT22;22559;54.176;12.102;2023-04-03T04:28:17;0.50;99.90
36552;DHT22;22559;54.176;12.102;2023-04-03T04:30:43;0.50;99.90
36552;DHT22;22559;54.176;12.102;2023-04-03T04:33:09;0.50;99.90
36552;DHT22;22559;54.176;12.102;2023-04-03T04:35:35;0.50;99.90
36552;DHT22;22559;54.176;12.102;2023-04-03T04:38:01;0.60;99.90
36552;DHT22;22559;54.176;12.102;2023-04-03T04:40:27;0.50;99.90
36552;DHT22;22559;54.176;12.102;2023-04-03T04:42:53;0.50;99.90
36552;DHT22;22559;54.176;12.102;2023-04-03T04:45:19;0.50;99.90
36552;DHT22;22559;54.176;12.102;2023-04-03T04:47:45;0.50;99.90
36552;DHT22;22559;54.176;12.102;2023-04-03T04:50:11;0.60;99.90
36552;DHT22;22559;54.176;12.102;2023-04-03T04:52:37;0.60;99.90
36552;DHT22;22559;54.176;12.102;2023-04-03T04:55:03;0.50;99.90
36552;DHT22;22559;54.176;12.102;2023-04-03T04:57:29;0.50;99.90
36552;DHT22;22559;54.176;12.102;2023-04-03T04:59:55;0.50;99.90
36552;DHT22;22559;54.176;12.102;2023-04-03T05:02:20;0.60;99.90
36552;DHT22;22559;54.176;12.102;2023-04-03T05:04:46;0.50;99.90
36552;DHT22;22559;54.176;12.102;2023-04-03T05:07:12;0.60;99.90
36552;DHT22;22559;54.176;12.102;2023-04-03T05:09:37;0.60;99.90
36552;DHT22;22559;54.176;12.102;2023-04-03T05:12:03;0.70;99.90
36552;DHT22;22559;54.176;12.102;2023-04-03T05:14:29;0.90;99.90
36552;DHT22;22559;54.176;12.102;2023-04-03T05:16:55;1.10;99.90
36552;DHT22;22559;54.176;12.102;2023-04-03T05:19:21;1.20;99.90
36552;DHT22;22559;54.176;12.102;2023-04-03T05:21:47;1.30;99.90
36552;DHT22;22559;54.176;12.102;2023-04-03T05:24:14;1.40;99.90
36552;DHT22;22559;54.176;12.102;2023-04-03T05:26:40;1.40;99.90
36552;DHT22;22559;54.176;12.102;2023-04-03T05:29:06;1.50;99.90
36552;DHT22;22559;54.176;12.102;2023-04-03T05:31:31;1.50;99.90
36552;DHT22;22559;54.176;12.102;2023-04-03T05:33:57;1.50;99.90
36552;DHT22;22559;54.176;12.102;2023-04-03T05:36:23;1.50;99.90
36552;DHT22;22559;54.176;12.102;2023-04-03T05:38:49;1.60;99.90
36552;DHT22;22559;54.176;12.102;2023-04-03T05:41:15;1.60;99.90
36552;DHT22;22559;54.176;12.102;2023-04-03T05:43:41;1.70;99.90
36552;DHT22;22559;54.176;12.102;2023-04-03T05:46:13;1.70;99.90
36552;DHT22;22559;54.176;12.102;2023-04-03T05:48:38;1.80;99.90
36552;DHT22;22559;54.176;12.102;2023-04-03T05:51:05;1.80;99.90
36552;DHT22;22559;54.176;12.102;2023-04-03T05:53:33;1.90;99.90
36552;DHT22;22559;54.176;12.102;2023-04-03T05:56:00;1.90;99.90
36552;DHT22;22559;54.176;12.102;2023-04-03T05:58:25;1.90;99.90
36552;DHT22;22559;54.176;12.102;2023-04-03T06:00:51;2.00;99.90
36552;DHT22;22559;54.176;12.102;2023-04-03T06:03:17;2.00;99.90
36552;DHT22;22559;54.176;12.102;2023-04-03T06:05:43;2.10;99.90
36552;DHT22;22559;54.176;12.102;2023-04-03T06:08:09;2.10;99.90
36552;DHT22;22559;54.176;12.102;2023-04-03T06:10:35;2.20;99.90
36552;DHT22;22559;54.176;12.102;2023-04-03T06:13:01;2.40;99.90
36552;DHT22;22559;54.176;12.102;2023-04-03T06:15:27;2.60;99.90
36552;DHT22;22559;54.176;12.102;2023-04-03T06:17:53;2.90;99.90
36552;DHT22;22559;54.176;12.102;2023-04-03T06:20:19;3.20;99.90
36552;DHT22;22559;54.176;12.102;2023-04-03T06:22:45;3.60;99.90
36552;DHT22;22559;54.176;12.102;2023-04-03T06:25:11;3.90;99.90
36552;DHT22;22559;54.176;12.102;2023-04-03T06:27:38;4.00;99.90
36552;DHT22;22559;54.176;12.102;2023-04-03T06:30:04;4.00;99.90
36552;DHT22;22559;54.176;12.102;2023-04-03T06:32:30;4.00;99.90
36552;DHT22;22559;54.176;12.102;2023-04-03T06:34:56;4.00;99.90
36552;DHT22;22559;54.176;12.102;2023-04-03T06:37:23;3.90;99.90
36552;DHT22;22559;54.176;12.102;2023-04-03T06:39:51;4.10;99.90
36552;DHT22;22559;54.176;12.102;2023-04-03T06:42:17;4.30;99.90
36552;DHT22;22559;54.176;12.102;2023-04-03T06:44:43;4.70;99.90
36552;DHT22;22559;54.176;12.102;2023-04-03T06:47:13;5.00;99.90
36552;DHT22;22559;54.176;12.102;2023-04-03T06:49:40;5.30;99.90
36552;DHT22;22559;54.176;12.102;2023-04-03T06:52:07;5.50;99.90
36552;DHT22;22559;54.176;12.102;2023-04-03T06:54:33;5.70;99.90
36552;DHT22;22559;54.176;12.102;2023-04-03T06:56:58;5.90;99.90
36552;DHT22;22559;54.176;12.102;2023-04-03T06:59:25;6.10;99.90
36552;DHT22;22559;54.176;12.102;2023-04-03T07:01:51;6.20;99.90
36552;DHT22;22559;54.176;12.102;2023-04-03T07:04:17;6.50;99.90
36552;DHT22;22559;54.176;12.102;2023-04-03T07:06:44;7.00;99.90
36552;DHT22;22559;54.176;12.102;2023-04-03T07:09:10;7.20;99.90
36552;DHT22;22559;54.176;12.102;2023-04-03T07:11:36;7.40;99.90
36552;DHT22;22559;54.176;12.102;2023-04-03T07:14:02;7.50;99.90
36552;DHT22;22559;54.176;12.102;2023-04-03T07:16:28;8.00;99.90
36552;DHT22;22559;54.176;12.102;2023-04-03T07:18:56;8.00;99.90
36552;DHT22;22559;54.176;12.102;2023-04-03T07:21:22;7.70;99.90
36552;DHT22;22559;54.176;12.102;2023-04-03T07:23:48;7.20;99.90
36552;DHT22;22559;54.176;12.102;2023-04-03T07:26:14;6.70;99.90
36552;DHT22;22559;54.176;12.102;2023-04-03T07:28:40;6.40;99.90
36552;DHT22;22559;54.176;12.102;2023-04-03T07:31:11;6.40;99.90
36552;DHT22;22559;54.176;12.102;2023-04-03T07:33:39;6.70;99.90
36552;DHT22;22559;54.176;12.102;2023-04-03T07:36:06;6.80;99.90
36552;DHT22;22559;54.176;12.102;2023-04-03T07:38:33;6.80;99.90
36552;DHT22;22559;54.176;12.102;2023-04-03T07:40:59;6.70;99.90
36552;DHT22;22559;54.176;12.102;2023-04-03T07:43:25;6.40;99.90
36552;DHT22;22559;54.176;12.102;2023-04-03T07:45:51;6.20;99.90
36552;DHT22;22559;54.176;12.102;2023-04-03T07:48:19;6.30;99.90
36552;DHT22;22559;54.176;12.102;2023-04-03T07:50:45;6.50;99.90
36552;DHT22;22559;54.176;12.102;2023-04-03T07:53:11;6.70;99.90
36552;DHT22;22559;54.176;12.102;2023-04-03T07:55:37;7.10;99.90
36552;DHT22;22559;54.176;12.102;2023-04-03T07:58:14;7.30;99.90
36552;DHT22;22559;54.176;12.102;2023-04-03T08:00:41;7.70;99.90
36552;DHT22;22559;54.176;12.102;2023-04-03T08:03:09;8.20;99.90
36552;DHT22;22559;54.176;12.102;2023-04-03T08:05:42;8.30;99.90
36552;DHT22;22559;54.176;12.102;2023-04-03T08:08:10;8.30;99.90
36552;DHT22;22559;54.176;12.102;2023-04-03T08:10:36;8.30;99.90
36552;DHT22;22559;54.176;12.102;2023-04-03T08:13:02;8.00;99.90
36552;DHT22;22559;54.176;12.102;2023-04-03T08:15:28;7.80;99.90
36552;DHT22;22559;54.176;12.102;2023-04-03T08:17:55;7.90;99.90
36552;DHT22;22559;54.176;12.102;2023-04-03T08:20:21;8.40;99.90
36552;DHT22;22559;54.176;12.102;2023-04-03T08:22:47;8.90;99.90
36552;DHT22;22559;54.176;12.102;2023-04-03T08:25:13;9.40;99.90
36552;DHT22;22559;54.176;12.102;2023-04-03T08:27:38;9.60;99.90
36552;DHT22;22559;54.176;12.102;2023-04-03T08:30:05;10.30;99.90
36552;DHT22;22559;54.176;12.102;2023-04-03T08:32:33;10.70;99.90
36552;DHT22;22559;54.176;12.102;2023-04-03T08:34:59;10.40;99.90
36552;DHT22;22559;54.176;12.102;2023-04-03T08:37:25;9.90;99.90
36552;DHT22;22559;54.176;12.102;2023-04-03T08:39:52;9.50;99.90
36552;DHT22;22559;54.176;12.102;2023-04-03T08:42:36;9.30;99.90
36552;DHT22;22559;54.176;12.102;2023-04-03T08:45:40;9.60;99.90
36552;DHT22;22559;54.176;12.102;2023-04-03T08:48:17;10.40;99.90
36552;DHT22;22559;54.176;12.102;2023-04-03T08:50:51;11.20;99.90
36552;DHT22;22559;54.176;12.102;2023-04-03T08:53:23;11.80;99.90
36552;DHT22;22559;54.176;12.102;2023-04-03T08:55:53;12.10;99.90
36552;DHT22;22559;54.176;12.102;2023-04-03T08:58:22;12.70;99.90
36552;DHT22;22559;54.176;12.102;2023-04-03T09:00:59;12.70;99.90
36552;DHT22;22559;54.176;12.102;2023-04-03T09:03:34;13.40;99.90
36552;DHT22;22559;54.176;12.102;2023-04-03T09:06:13;13.70;99.90
36552;DHT22;22559;54.176;12.102;2023-04-03T09:08:53;13.60;99.90
36552;DHT22;22559;54.176;12.102;2023-04-03T09:11:33;13.80;99.90
36552;DHT22;22559;54.176;12.102;2023-04-03T09:14:30;13.90;99.90
36552;DHT22;22559;54.176;12.102;2023-04-03T09:17:03;13.70;99.90
36552;DHT22;22559;54.176;12.102;2023-04-03T09:19:54;13.50;99.90
36552;DHT22;22559;54.176;12.102;2023-04-03T09:22:26;13.70;99.90
36552;DHT22;22559;54.176;12.102;2023-04-03T09:25:14;13.70;99.90
36552;DHT22;22559;54.176;12.102;2023-04-03T09:27:41;13.50;99.90
36552;DHT22;22559;54.176;12.102;2023-04-03T09:30:19;14.10;99.90
36552;DHT22;22559;54.176;12.102;2023-04-03T09:32:46;12.90;99.90
36552;DHT22;22559;54.176;12.102;2023-04-03T09:37:46;11.60;99.90
36552;DHT22;22559;54.176;12.102;2023-04-03T09:42:53;11.00;99.90
36552;DHT22;22559;54.176;12.102;2023-04-03T09:45:31;10.40;99.90
36552;DHT22;22559;54.176;12.102;2023-04-03T09:50:41;11.30;99.90
36552;DHT22;22559;54.176;12.102;2023-04-03T09:53:43;12.10;99.90
36552;DHT22;22559;54.176;12.102;2023-04-03T09:58:46;13.00;99.90
36552;DHT22;22559;54.176;12.102;2023-04-03T10:01:45;13.40;99.90
36552;DHT22;22559;54.176;12.102;2023-04-03T10:04:22;13.80;99.90
36552;DHT22;22559;54.176;12.102;2023-04-03T10:06:55;14.30;99.90
36552;DHT22;22559;54.176;12.102;2023-04-03T10:09:29;14.30;99.90
36552;DHT22;22559;54.176;12.102;2023-04-03T10:12:03;14.40;99.90
36552;DHT22;22559;54.176;12.102;2023-04-03T10:14:32;14.50;99.90
36552;DHT22;22559;54.176;12.102;2023-04-03T10:20:00;14.50;99.90
36552;DHT22;22559;54.176;12.102;2023-04-03T10:25:30;14.10;99.90
36552;DHT22;22559;54.176;12.102;2023-04-03T10:30:48;13.80;99.90
36552;DHT22;22559;54.176;12.102;2023-04-03T10:44:45;14.10;99.90
36552;DHT22;22559;54.176;12.102;2023-04-03T10:47:19;14.00;99.90
36552;DHT22;22559;54.176;12.102;2023-04-03T10:50:54;13.70;99.90
36552;DHT22;22559;54.176;12.102;2023-04-03T10:58:45;13.90;99.90
36552;DHT22;22559;54.176;12.102;2023-04-03T11:01:21;13.90;99.90
36552;DHT22;22559;54.176;12.102;2023-04-03T11:03:59;14.20;99.90
36552;DHT22;22559;54.176;12.102;2023-04-03T11:06:33;14.70;99.90
36552;DHT22;22559;54.176;12.102;2023-04-03T11:11:53;15.10;99.90
36552;DHT22;22559;54.176;12.102;2023-04-03T11:14:31;14.60;99.90
36552;DHT22;22559;54.176;12.102;2023-04-03T11:22:42;14.90;99.90
36552;DHT22;22559;54.176;12.102;2023-04-03T11:30:57;14.10;99.90
36552;DHT22;22559;54.176;12.102;2023-04-03T11:36:58;13.90;99.90
36552;DHT22;22559;54.176;12.102;2023-04-03T11:39:32;14.60;99.90
36552;DHT22;22559;54.176;12.102;2023-04-03T11:45:24;13.90;99.90
36552;DHT22;22559;54.176;12.102;2023-04-03T11:47:59;13.70;99.90
36552;DHT22;22559;54.176;12.102;2023-04-03T11:50:37;14.00;99.90
36552;DHT22;22559;54.176;12.102;2023-04-03T12:16:10;13.60;99.90
36552;DHT22;22559;54.176;12.102;2023-04-03T12:21:12;13.80;99.90
36552;DHT22;22559;54.176;12.102;2023-04-03T12:24:01;13.60;99.90
36552;DHT22;22559;54.176;12.102;2023-04-03T12:26:41;13.60;99.90
36552;DHT22;22559;54.176;12.102;2023-04-03T12:29:20;13.20;99.90
36552;DHT22;22559;54.176;12.102;2023-04-03T12:40:39;14.20;99.90
36552;DHT22;22559;54.176;12.102;2023-04-03T12:43:39;13.80;99.90
36552;DHT22;22559;54.176;12.102;2023-04-03T12:51:37;13.40;99.90
36552;DHT22;22559;54.176;12.102;2023-04-03T12:54:32;13.80;99.90
36552;DHT22;22559;54.176;12.102;2023-04-03T12:59:42;14.10;99.90
36552;DHT22;22559;54.176;12.102;2023-04-03T13:02:30;13.40;99.90
36552;DHT22;22559;54.176;12.102;2023-04-03T13:05:05;13.10;99.90
36552;DHT22;22559;54.176;12.102;2023-04-03T13:07:34;13.20;99.90
36552;DHT22;22559;54.176;12.102;2023-04-03T13:12:52;13.20;99.90
36552;DHT22;22559;54.176;12.102;2023-04-03T13:15:21;13.70;99.90
36552;DHT22;22559;54.176;12.102;2023-04-03T13:17:48;13.60;99.90
36552;DHT22;22559;54.176;12.102;2023-04-03T13:22:49;13.20;99.90
36552;DHT22;22559;54.176;12.102;2023-04-03T13:25:19;12.90;99.90
36552;DHT22;22559;54.176;12.102;2023-04-03T13:27:45;12.90;99.90
36552;DHT22;22559;54.176;12.102;2023-04-03T13:30:37;12.90;99.90
36552;DHT22;22559;54.176;12.102;2023-04-03T13:33:19;12.90;99.90
36552;DHT22;22559;54.176;12.102;2023-04-03T13:35:45;12.50;99.90
36552;DHT22;22559;54.176;12.102;2023-04-03T13:40:55;12.60;99.90
36552;DHT22;22559;54.176;12.102;2023-04-03T13:43:24;12.60;99.90
36552;DHT22;22559;54.176;12.102;2023-04-03T13:48:49;12.90;99.90
36552;DHT22;22559;54.176;12.102;2023-04-03T13:51:21;12.60;99.90
36552;DHT22;22559;54.176;12.102;2023-04-03T13:59:05;13.10;99.90
36552;DHT22;22559;54.176;12.102;2023-04-03T14:04:26;13.00;99.90
36552;DHT22;22559;54.176;12.102;2023-04-03T14:06:53;12.70;99.90
36552;DHT22;22559;54.176;12.102;2023-04-03T14:09:21;12.50;99.90
36552;DHT22;22559;54.176;12.102;2023-04-03T14:11:48;12.60;99.90
36552;DHT22;22559;54.176;12.102;2023-04-03T14:14:18;12.70;99.90
36552;DHT22;22559;54.176;12.102;2023-04-03T14:16:48;12.70;99.90
36552;DHT22;22559;54.176;12.102;2023-04-03T14:19:26;12.60;99.90
36552;DHT22;22559;54.176;12.102;2023-04-03T14:21:53;11.80;99.90
36552;DHT22;22559;54.176;12.102;2023-04-03T14:24:19;12.10;99.90
36552;DHT22;22559;54.176;12.102;2023-04-03T14:26:45;11.80;99.90
36552;DHT22;22559;54.176;12.102;2023-04-03T14:29:12;12.20;99.90
36552;DHT22;22559;54.176;12.102;2023-04-03T14:31:39;12.30;99.90
36552;DHT22;22559;54.176;12.102;2023-04-03T14:34:05;11.90;99.90
36552;DHT22;22559;54.176;12.102;2023-04-03T14:36:32;11.80;99.90
36552;DHT22;22559;54.176;12.102;2023-04-03T14:38:58;11.70;99.90
36552;DHT22;22559;54.176;12.102;2023-04-03T14:41:26;12.00;99.90
36552;DHT22;22559;54.176;12.102;2023-04-03T14:43:52;12.00;99.90
36552;DHT22;22559;54.176;12.102;2023-04-03T14:46:43;12.30;99.90
36552;DHT22;22559;54.176;12.102;2023-04-03T14:49:17;12.70;99.90
36552;DHT22;22559;54.176;12.102;2023-04-03T14:51:43;12.50;99.90
36552;DHT22;22559;54.176;12.102;2023-04-03T14:54:18;12.20;99.90
36552;DHT22;22559;54.176;12.102;2023-04-03T14:56:44;12.80;99.90
36552;DHT22;22559;54.176;12.102;2023-04-03T14:59:12;12.50;99.90
36552;DHT22;22559;54.176;12.102;2023-04-03T15:01:39;12.40;99.90
36552;DHT22;22559;54.176;12.102;2023-04-03T15:04:13;12.40;99.90
36552;DHT22;22559;54.176;12.102;2023-04-03T15:06:39;12.70;99.90
36552;DHT22;22559;54.176;12.102;2023-04-03T15:09:20;12.80;99.90
36552;DHT22;22559;54.176;12.102;2023-04-03T15:11:48;13.20;99.90
36552;DHT22;22559;54.176;12.102;2023-04-03T15:14:14;12.90;99.90
36552;DHT22;22559;54.176;12.102;2023-04-03T15:16:40;12.70;99.90
36552;DHT22;22559;54.176;12.102;2023-04-03T15:19:06;12.40;99.90
36552;DHT22;22559;54.176;12.102;2023-04-03T15:21:31;12.50;99.90
36552;DHT22;22559;54.176;12.102;2023-04-03T15:23:57;12.70;99.90
36552;DHT22;22559;54.176;12.102;2023-04-03T15:26:22;12.60;99.90
36552;DHT22;22559;54.176;12.102;2023-04-03T15:28:49;12.50;99.90
36552;DHT22;22559;54.176;12.102;2023-04-03T15:31:14;12.60;99.90
36552;DHT22;22559;54.176;12.102;2023-04-03T15:33:40;12.70;99.90
36552;DHT22;22559;54.176;12.102;2023-04-03T15:36:06;12.80;99.90
36552;DHT22;22559;54.176;12.102;2023-04-03T15:38:31;12.80;99.90
36552;DHT22;22559;54.176;12.102;2023-04-03T15:40:57;13.10;99.90
36552;DHT22;22559;54.176;12.102;2023-04-03T15:43:23;12.60;99.90
36552;DHT22;22559;54.176;12.102;2023-04-03T15:45:49;12.60;99.90
36552;DHT22;22559;54.176;12.102;2023-04-03T15:48:17;12.70;99.90
36552;DHT22;22559;54.176;12.102;2023-04-03T15:50:43;12.10;99.90
36552;DHT22;22559;54.176;12.102;2023-04-03T15:53:09;12.10;99.90
36552;DHT22;22559;54.176;12.102;2023-04-03T15:55:36;11.80;99.90
36552;DHT22;22559;54.176;12.102;2023-04-03T15:58:03;11.70;99.90
36552;DHT22;22559;54.176;12.102;2023-04-03T16:00:30;11.30;99.90
36552;DHT22;22559;54.176;12.102;2023-04-03T16:03:00;11.50;99.90
36552;DHT22;22559;54.176;12.102;2023-04-03T16:05:27;11.10;99.90
36552;DHT22;22559;54.176;12.102;2023-04-03T16:07:53;11.10;99.90
36552;DHT22;22559;54.176;12.102;2023-04-03T16:10:20;11.00;99.90
36552;DHT22;22559;54.176;12.102;2023-04-03T16:12:46;11.10;99.90
36552;DHT22;22559;54.176;12.102;2023-04-03T16:15:12;11.40;99.90
36552;DHT22;22559;54.176;12.102;2023-04-03T16:17:38;11.30;99.90
36552;DHT22;22559;54.176;12.102;2023-04-03T16:20:07;11.50;99.90
36552;DHT22;22559;54.176;12.102;2023-04-03T16:22:33;11.30;99.90
36552;DHT22;22559;54.176;12.102;2023-04-03T16:24:59;11.30;99.90
36552;DHT22;22559;54.176;12.102;2023-04-03T16:27:25;10.90;99.90
36552;DHT22;22559;54.176;12.102;2023-04-03T16:29:54;10.70;99.90
36552;DHT22;22559;54.176;12.102;2023-04-03T16:32:20;10.40;99.90
36552;DHT22;22559;54.176;12.102;2023-04-03T16:34:46;10.30;99.90
36552;DHT22;22559;54.176;12.102;2023-04-03T16:37:12;10.20;99.90
36552;DHT22;22559;54.176;12.102;2023-04-03T16:39:37;10.20;99.90
36552;DHT22;22559;54.176;12.102;2023-04-03T16:42:03;10.30;99.90
36552;DHT22;22559;54.176;12.102;2023-04-03T16:44:29;10.00;99.90
36552;DHT22;22559;54.176;12.102;2023-04-03T16:46:54;9.80;99.90
36552;DHT22;22559;54.176;12.102;2023-04-03T16:49:20;9.90;99.90
36552;DHT22;22559;54.176;12.102;2023-04-03T16:51:47;9.90;99.90
36552;DHT22;22559;54.176;12.102;2023-04-03T16:54:13;9.70;99.90
36552;DHT22;22559;54.176;12.102;2023-04-03T16:56:39;9.40;99.90
36552;DHT22;22559;54.176;12.102;2023-04-03T16:59:05;9.00;99.90
36552;DHT22;22559;54.176;12.102;2023-04-03T17:01:31;8.70;99.90
36552;DHT22;22559;54.176;12.102;2023-04-03T17:03:57;8.50;99.90
36552;DHT22;22559;54.176;12.102;2023-04-03T17:06:23;8.30;99.90
36552;DHT22;22559;54.176;12.102;2023-04-03T17:08:50;8.00;99.90
36552;DHT22;22559;54.176;12.102;2023-04-03T17:11:16;7.80;99.90
36552;DHT22;22559;54.176;12.102;2023-04-03T17:13:42;7.40;99.90
36552;DHT22;22559;54.176;12.102;2023-04-03T17:16:11;7.10;99.90
36552;DHT22;22559;54.176;12.102;2023-04-03T17:18:38;6.80;99.90
36552;DHT22;22559;54.176;12.102;2023-04-03T17:21:05;6.50;99.90
36552;DHT22;22559;54.176;12.102;2023-04-03T17:23:32;6.40;99.90
36552;DHT22;22559;54.176;12.102;2023-04-03T17:26:00;6.10;99.90
36552;DHT22;22559;54.176;12.102;2023-04-03T17:28:26;5.90;99.90
36552;DHT22;22559;54.176;12.102;2023-04-03T17:30:56;5.70;99.90
36552;DHT22;22559;54.176;12.102;2023-04-03T17:33:22;5.50;99.90
36552;DHT22;22559;54.176;12.102;2023-04-03T17:35:48;5.40;99.90
36552;DHT22;22559;54.176;12.102;2023-04-03T17:38:13;5.00;99.90
36552;DHT22;22559;54.176;12.102;2023-04-03T17:40:39;5.00;99.90
36552;DHT22;22559;54.176;12.102;2023-04-03T17:43:05;4.90;99.90